createdAt,value
2019-02-07T00:00:21.599Z,100435.22
2019-02-07T00:02:47.773Z,100430.05
2019-02-07T00:05:14.196Z,100431.05
2019-02-07T00:07:40.380Z,100425.58
2019-02-07T00:10:11.711Z,100419.54
2019-02-07T00:12:37.887Z,100415.34
2019-02-07T00:15:08.678Z,100417.10
2019-02-07T00:17:34.856Z,100415.69
2019-02-07T00:20:02.211Z,100415.80
2019-02-07T00:22:28.386Z,100423.38
2019-02-07T00:24:54.618Z,100418.42
2019-02-07T00:27:20.804Z,100423.30
2019-02-07T00:29:46.968Z,100418.53
2019-02-07T00:32:13.159Z,100409.44
2019-02-07T00:34:39.349Z,100409.42
2019-02-07T00:37:05.513Z,100402.00
2019-02-07T00:39:31.702Z,100398.39
2019-02-07T00:41:57.879Z,100397.55
2019-02-07T00:44:24.051Z,100392.87
2019-02-07T00:46:50.233Z,100391.38
2019-02-07T00:49:16.476Z,100388.22
2019-02-07T00:51:42.677Z,100387.48
2019-02-07T00:54:09.073Z,100392.47
2019-02-07T00:56:35.260Z,100384.16
2019-02-07T00:59:01.673Z,100374.00
2019-02-07T01:01:30.070Z,100366.73
2019-02-07T01:03:56.238Z,100363.77
2019-02-07T01:06:22.420Z,100358.42
2019-02-07T01:08:49.013Z,100350.19
2019-02-07T01:11:15.600Z,100347.27
2019-02-07T01:13:42.215Z,100340.90
2019-02-07T01:16:08.429Z,100341.25
2019-02-07T01:18:34.593Z,100333.83
2019-02-07T01:21:00.876Z,100330.86
2019-02-07T01:23:27.115Z,100320.73
2019-02-07T01:25:53.321Z,100315.24
2019-02-07T01:28:19.476Z,100316.35
2019-02-07T01:30:45.668Z,100309.86
2019-02-07T01:33:11.940Z,100300.11
2019-02-07T01:35:44.308Z,100294.67
2019-02-07T01:38:10.491Z,100295.45
2019-02-07T01:40:37.035Z,100286.17
2019-02-07T01:43:03.259Z,100283.73
2019-02-07T01:45:29.438Z,100284.87
2019-02-07T01:47:55.596Z,100287.61
2019-02-07T01:50:24.239Z,100283.28
2019-02-07T01:52:50.904Z,100275.21
2019-02-07T01:55:17.367Z,100276.56
2019-02-07T01:57:43.906Z,100272.67
2019-02-07T02:00:14.596Z,100273.27
2019-02-07T02:02:41.193Z,100272.53
2019-02-07T02:05:13.184Z,100268.53
2019-02-07T02:07:39.641Z,100258.16
2019-02-07T02:10:14.026Z,100256.41
2019-02-07T02:12:40.323Z,100251.34
2019-02-07T02:15:09.793Z,100244.82
2019-02-07T02:17:36.169Z,100237.63
2019-02-07T02:20:07.042Z,100234.41
2019-02-07T02:22:33.254Z,100232.70
2019-02-07T02:24:59.724Z,100233.63
2019-02-07T02:27:26.280Z,100244.37
2019-02-07T02:29:52.495Z,100246.27
2019-02-07T02:32:18.736Z,100234.92
2019-02-07T02:34:44.889Z,100237.40
2019-02-07T02:37:11.661Z,100232.53
2019-02-07T02:39:37.994Z,100228.26
2019-02-07T02:42:04.356Z,100225.17
2019-02-07T02:44:31.013Z,100228.45
2019-02-07T02:46:57.182Z,100225.95
2019-02-07T02:49:23.501Z,100219.38
2019-02-07T02:51:49.685Z,100218.05
2019-02-07T02:54:33.042Z,100220.09
2019-02-07T02:56:59.232Z,100209.27
2019-02-07T02:59:25.924Z,100209.74
2019-02-07T03:01:56.741Z,100208.77
2019-02-07T03:04:24.836Z,100197.14
2019-02-07T03:06:52.903Z,100185.45
2019-02-07T03:09:34.634Z,100177.53
2019-02-07T03:12:18.147Z,100164.77
2019-02-07T03:14:58.416Z,100159.69
2019-02-07T03:17:29.522Z,100157.64
2019-02-07T03:20:03.396Z,100152.39
2019-02-07T03:22:31.525Z,100149.25
2019-02-07T03:25:16.281Z,100147.25
2019-02-07T03:28:01.269Z,100145.73
2019-02-07T03:30:29.681Z,100143.08
2019-02-07T03:33:14.209Z,100141.30
2019-02-07T03:35:42.316Z,100137.40
2019-02-07T03:38:10.426Z,100135.13
2019-02-07T03:40:47.526Z,100130.67
2019-02-07T03:43:15.600Z,100126.77
2019-02-07T03:46:02.958Z,100122.71
2019-02-07T03:48:33.166Z,100121.75
2019-02-07T03:51:13.402Z,100116.39
2019-02-07T03:53:44.152Z,100112.63
2019-02-07T03:56:24.412Z,100118.36
2019-02-07T03:59:01.573Z,100110.69
2019-02-07T04:01:35.665Z,100114.58
2019-02-07T04:04:03.875Z,100104.72
2019-02-07T04:06:41.158Z,100096.60
2019-02-07T04:09:12.812Z,100088.28
2019-02-07T04:11:43.791Z,100081.88
2019-02-07T04:14:17.889Z,100074.25
2019-02-07T04:16:46.171Z,100083.22
2019-02-07T04:19:30.804Z,100079.97
2019-02-07T04:22:05.180Z,100076.87
2019-02-07T04:24:39.396Z,100070.64
2019-02-07T04:27:13.660Z,100079.24
2019-02-07T04:29:53.990Z,100067.65
2019-02-07T04:32:38.171Z,100057.16
2019-02-07T04:35:07.187Z,100053.45
2019-02-07T04:37:47.444Z,100044.45
2019-02-07T04:40:24.539Z,100042.40
2019-02-07T04:43:01.555Z,100042.34
2019-02-07T04:45:29.653Z,100036.75
2019-02-07T04:48:06.925Z,100035.86
2019-02-07T04:50:35.121Z,100040.64
2019-02-07T04:53:06.525Z,100029.89
2019-02-07T04:55:35.805Z,100032.64
2019-02-07T04:58:03.880Z,100026.64
2019-02-07T05:00:31.951Z,100020.04
2019-02-07T05:03:00.019Z,100020.29
2019-02-07T05:05:40.404Z,100018.53
2019-02-07T05:08:17.553Z,100011.09
2019-02-07T05:14:17.771Z,100008.48
2019-02-07T05:17:00.855Z,100007.72
2019-02-07T05:19:32.270Z,100009.81
2019-02-07T05:22:09.371Z,100012.31
2019-02-07T05:24:37.473Z,100014.03
2019-02-07T05:27:14.818Z,100018.70
2019-02-07T05:29:45.988Z,100021.80
2019-02-07T05:32:16.995Z,100015.80
2019-02-07T05:34:47.790Z,100014.83
2019-02-07T05:37:30.890Z,100015.93
2019-02-07T05:39:59.282Z,100006.53
2019-02-07T05:42:27.686Z,100005.34
2019-02-07T05:45:01.520Z,99998.12
2019-02-07T05:47:35.511Z,100007.90
2019-02-07T05:50:14.649Z,100008.23
2019-02-07T05:53:20.708Z,100008.80
2019-02-07T05:56:05.754Z,100006.08
2019-02-07T05:58:43.404Z,100004.59
2019-02-07T06:01:11.686Z,100004.11
2019-02-07T06:03:51.739Z,99995.26
2019-02-07T06:06:19.832Z,99990.66
2019-02-07T06:08:50.904Z,99987.28
2019-02-07T06:11:34.295Z,99983.51
2019-02-07T06:14:17.847Z,99986.45
2019-02-07T06:16:46.057Z,99988.67
2019-02-07T06:19:31.335Z,99988.77
2019-02-07T06:22:08.889Z,99990.23
2019-02-07T06:24:48.907Z,99987.59
2019-02-07T06:27:33.735Z,99984.84
2019-02-07T06:30:04.659Z,99986.20
2019-02-07T06:32:41.773Z,99992.39
2019-02-07T06:35:13.025Z,99989.62
2019-02-07T06:37:42.612Z,99984.52
2019-02-07T06:40:12.151Z,99974.74
2019-02-07T06:42:46.277Z,99978.52
2019-02-07T06:45:14.617Z,99973.77
2019-02-07T06:47:59.258Z,99981.22
2019-02-07T06:50:33.354Z,99979.95
2019-02-07T06:53:05.028Z,99974.40
2019-02-07T06:55:49.820Z,99966.00
2019-02-07T06:58:27.044Z,99970.32
2019-02-07T07:00:58.174Z,99972.13
2019-02-07T07:03:26.295Z,99971.66
2019-02-07T07:06:12.440Z,99967.08
2019-02-07T07:08:46.307Z,99960.32
2019-02-07T07:11:24.013Z,99960.88
2019-02-07T07:13:58.227Z,99960.74
2019-02-07T07:16:32.162Z,99953.80
2019-02-07T07:19:15.198Z,99954.87
2019-02-07T07:21:49.133Z,99951.17
2019-02-07T07:24:19.998Z,99946.36
2019-02-07T07:27:00.107Z,99937.48
2019-02-07T07:29:34.452Z,99939.86
2019-02-07T07:32:03.751Z,99937.18
2019-02-07T07:34:48.443Z,99935.70
2019-02-07T07:37:22.563Z,99921.52
2019-02-07T07:40:07.437Z,99919.74
2019-02-07T07:42:52.573Z,99906.68
2019-02-07T07:45:32.875Z,99904.30
2019-02-07T07:48:17.947Z,99900.94
2019-02-07T07:50:58.038Z,99901.36
2019-02-07T07:53:35.348Z,99901.83
2019-02-07T07:56:03.424Z,99907.83
2019-02-07T07:58:37.812Z,99902.42
2019-02-07T08:01:06.159Z,99903.23
2019-02-07T08:03:40.529Z,99908.12
2019-02-07T08:06:11.583Z,99904.63
2019-02-07T08:08:39.662Z,99906.02
2019-02-07T08:11:22.777Z,99904.83
2019-02-07T08:14:09.169Z,99906.79
2019-02-07T08:16:37.595Z,99909.66
2019-02-07T08:19:08.352Z,99910.12
2019-02-07T08:21:36.431Z,99905.55
2019-02-07T08:24:11.219Z,99894.89
2019-02-07T08:26:55.983Z,99890.89
2019-02-07T08:29:36.227Z,99878.59
2019-02-07T08:32:14.181Z,99859.16
2019-02-07T08:35:00.301Z,99862.85
2019-02-07T08:37:45.299Z,99854.05
2019-02-07T08:40:31.730Z,99852.19
2019-02-07T08:43:05.548Z,99846.78
2019-02-07T08:45:36.529Z,99847.66
2019-02-07T08:48:09.708Z,99843.74
2019-02-07T08:50:40.724Z,99840.64
2019-02-07T08:53:15.407Z,99835.27
2019-02-07T08:55:52.281Z,99840.77
2019-02-07T08:58:23.359Z,99839.78
2019-02-07T09:00:51.436Z,99838.55
2019-02-07T09:03:34.831Z,99833.77
2019-02-07T09:06:08.805Z,99823.48
2019-02-07T09:08:42.752Z,99822.01
2019-02-07T09:11:27.647Z,99818.41
2019-02-07T09:13:55.797Z,99813.58
2019-02-07T09:16:26.513Z,99815.14
2019-02-07T09:18:54.617Z,99819.80
2019-02-07T09:21:31.685Z,99829.16
2019-02-07T09:24:02.935Z,99821.97
2019-02-07T09:26:48.229Z,99825.20
2019-02-07T09:29:32.161Z,99827.23
2019-02-07T09:32:18.748Z,99826.17
2019-02-07T09:35:03.587Z,99831.75
2019-02-07T09:37:34.652Z,99828.20
2019-02-07T09:40:05.967Z,99822.33
2019-02-07T09:42:40.059Z,99827.19
2019-02-07T09:45:30.734Z,99822.05
2019-02-07T09:48:21.651Z,99838.48
2019-02-07T09:50:45.810Z,99819.93
2019-02-07T09:53:25.797Z,99822.88
2019-02-07T09:56:02.635Z,99819.74
2019-02-07T09:58:33.678Z,99818.41
2019-02-07T10:01:07.990Z,99816.55
2019-02-07T10:03:36.029Z,99802.80
2019-02-07T10:06:10.445Z,99792.30
2019-02-07T10:08:41.843Z,99801.03
2019-02-07T10:11:12.982Z,99802.83
2019-02-07T10:13:41.057Z,99799.47
2019-02-07T10:16:18.248Z,99784.82
2019-02-07T10:19:04.953Z,99783.56
2019-02-07T10:21:47.999Z,99784.59
2019-02-07T10:24:31.351Z,99783.80
2019-02-07T10:27:00.522Z,99782.91
2019-02-07T10:29:31.232Z,99777.05
2019-02-07T10:32:02.417Z,99771.20
2019-02-07T10:34:36.809Z,99765.13
2019-02-07T10:37:14.005Z,99759.91
2019-02-07T10:39:42.386Z,99755.06
2019-02-07T10:42:26.401Z,99753.70
2019-02-07T10:45:00.477Z,99744.75
2019-02-07T10:47:45.372Z,99741.86
2019-02-07T10:50:13.758Z,99733.27
2019-02-07T10:52:56.917Z,99742.84
2019-02-07T10:55:25.003Z,99736.34
2019-02-07T10:58:09.914Z,99734.98
2019-02-07T11:00:38.127Z,99729.32
2019-02-07T11:03:39.671Z,99729.56
2019-02-07T11:06:07.958Z,99737.99
2019-02-07T11:08:54.292Z,99722.66
2019-02-07T11:11:41.129Z,99721.58
2019-02-07T11:14:09.214Z,99719.01
2019-02-07T11:16:37.288Z,99697.80
2019-02-07T11:19:08.015Z,99702.62
2019-02-07T11:21:52.883Z,99706.05
2019-02-07T11:24:39.733Z,99705.66
2019-02-07T11:27:23.167Z,99697.88
2019-02-07T11:30:07.818Z,99685.68
2019-02-07T11:32:52.630Z,99681.84
2019-02-07T11:35:37.194Z,99684.13
2019-02-07T11:38:21.022Z,99690.00
2019-02-07T11:40:54.930Z,99696.32
2019-02-07T11:43:39.729Z,99691.55
2019-02-07T11:46:08.125Z,99695.69
2019-02-07T11:48:36.190Z,99681.91
2019-02-07T11:51:21.504Z,99679.17
2019-02-07T11:54:07.634Z,99683.29
2019-02-07T11:56:35.730Z,99678.94
2019-02-07T11:59:12.556Z,99682.98
2019-02-07T12:01:49.674Z,99685.52
2019-02-07T12:04:23.463Z,99681.30
2019-02-07T12:06:54.263Z,99678.51
2019-02-07T12:09:39.349Z,99683.27
2019-02-07T12:12:13.406Z,99678.47
2019-02-07T12:14:47.493Z,99679.22
2019-02-07T12:17:15.603Z,99680.65
2019-02-07T12:19:46.566Z,99671.73
2019-02-07T12:22:14.810Z,99667.88
2019-02-07T12:24:55.149Z,99660.61
2019-02-07T12:27:23.584Z,99657.84
2019-02-07T12:29:51.707Z,99661.75
2019-02-07T12:32:25.696Z,99663.80
2019-02-07T12:35:13.815Z,99657.89
2019-02-07T12:37:41.965Z,99658.02
2019-02-07T12:40:13.066Z,99649.27
2019-02-07T12:42:44.107Z,99642.41
2019-02-07T12:45:27.550Z,99639.54
2019-02-07T12:48:02.164Z,99643.66
2019-02-07T12:50:47.080Z,99643.41
2019-02-07T12:53:24.193Z,99640.95
2019-02-07T12:56:07.290Z,99644.05
2019-02-07T12:58:35.416Z,99631.89
2019-02-07T13:01:06.148Z,99635.42
2019-02-07T13:03:37.412Z,99636.25
2019-02-07T13:06:14.707Z,99642.68
2019-02-07T13:08:49.061Z,99634.24
2019-02-07T13:11:20.022Z,99633.09
2019-02-07T13:13:56.906Z,99619.05
2019-02-07T13:16:24.936Z,99618.97
2019-02-07T13:19:05.015Z,99620.62
2019-02-07T13:21:42.213Z,99620.34
2019-02-07T13:24:25.593Z,99617.87
2019-02-07T13:26:53.713Z,99610.77
2019-02-07T13:29:26.745Z,99620.87
2019-02-07T13:32:11.799Z,99609.95
2019-02-07T13:34:39.856Z,99603.17
2019-02-07T13:37:08.081Z,99601.45
2019-02-07T13:39:48.412Z,99602.32
2019-02-07T13:42:17.527Z,99609.84
2019-02-07T13:44:48.257Z,99608.53
2019-02-07T13:47:33.199Z,99595.97
2019-02-07T13:50:01.596Z,99601.33
2019-02-07T13:52:32.726Z,99598.77
2019-02-07T13:55:17.350Z,99603.09
2019-02-07T13:57:54.558Z,99600.81
2019-02-07T14:00:39.291Z,99597.13
2019-02-07T14:03:19.896Z,99600.80
2019-02-07T14:05:48.264Z,99591.80
2019-02-07T14:08:25.947Z,99593.62
2019-02-07T14:10:54.035Z,99594.58
2019-02-07T14:13:22.444Z,99597.09
2019-02-07T14:16:05.516Z,99605.30
2019-02-07T14:18:53.471Z,99604.61
2019-02-07T14:21:24.195Z,99598.27
2019-02-07T14:24:09.389Z,99595.95
2019-02-07T14:26:44.242Z,99606.39
2019-02-07T14:29:12.823Z,99607.59
2019-02-07T14:31:43.559Z,99621.01
2019-02-07T14:34:11.753Z,99609.14
2019-02-07T14:36:39.887Z,99615.34
2019-02-07T14:39:21.410Z,99612.57
2019-02-07T14:42:06.149Z,99623.11
2019-02-07T14:44:46.460Z,99619.69
2019-02-07T14:47:12.631Z,99621.22
2019-02-07T14:49:38.872Z,99620.30
2019-02-07T14:52:05.543Z,99619.87
2019-02-07T14:54:31.767Z,99615.80
2019-02-07T14:56:57.926Z,99617.86
2019-02-07T14:59:24.719Z,99623.46
2019-02-07T15:01:50.998Z,99623.62
2019-02-07T15:04:17.580Z,99618.73
2019-02-07T15:06:44.625Z,99618.48
2019-02-07T15:09:13.556Z,99627.17
2019-02-07T15:11:40.617Z,99630.76
2019-02-07T15:14:07.054Z,99624.48
2019-02-07T15:16:33.478Z,99628.60
2019-02-07T15:18:59.710Z,99626.40
2019-02-07T15:21:26.029Z,99626.42
2019-02-07T15:23:52.597Z,99625.61
2019-02-07T15:26:18.745Z,99627.47
2019-02-07T15:28:45.307Z,99624.18
2019-02-07T15:31:11.540Z,99632.86
2019-02-07T15:33:37.732Z,99630.55
2019-02-07T15:36:07.816Z,99628.65
2019-02-07T15:38:33.977Z,99632.45
2019-02-07T15:41:00.268Z,99632.28
2019-02-07T15:43:26.419Z,99639.06
2019-02-07T15:45:53.701Z,99647.38
2019-02-07T15:48:19.991Z,99646.83
2019-02-07T15:50:46.330Z,99647.71
2019-02-07T15:53:12.767Z,99651.13
2019-02-07T15:55:38.976Z,99646.12
2019-02-07T15:58:05.234Z,99653.16
2019-02-07T16:00:36.248Z,99650.92
2019-02-07T16:03:05.925Z,99653.58
2019-02-07T16:05:32.437Z,99652.10
2019-02-07T16:07:58.584Z,99654.53
2019-02-07T16:10:25.099Z,99658.06
2019-02-07T16:12:51.260Z,99664.77
2019-02-07T16:15:17.568Z,99665.06
2019-02-07T16:17:44.035Z,99665.63
2019-02-07T16:20:17.789Z,99665.43
2019-02-07T16:22:44.544Z,99657.25
2019-02-07T16:25:16.567Z,99667.31
2019-02-07T16:27:43.062Z,99664.58
2019-02-07T16:30:15.799Z,99667.63
2019-02-07T16:32:42.201Z,99675.38
2019-02-07T16:35:11.358Z,99680.08
2019-02-07T16:37:37.836Z,99679.89
2019-02-07T16:40:09.300Z,99680.85
2019-02-07T16:42:35.544Z,99683.17
2019-02-07T16:45:05.895Z,99685.48
2019-02-07T16:47:32.099Z,99681.44
2019-02-07T16:49:58.435Z,99684.59
2019-02-07T16:52:24.630Z,99672.84
2019-02-07T16:54:51.354Z,99672.52
2019-02-07T16:57:17.546Z,99676.25
2019-02-07T16:59:43.862Z,99679.15
2019-02-07T17:02:10.122Z,99680.38
2019-02-07T17:04:36.272Z,99675.92
2019-02-07T17:07:02.743Z,99682.20
2019-02-07T17:09:31.130Z,99680.08
2019-02-07T17:11:57.332Z,99678.84
2019-02-07T17:14:23.933Z,99687.05
2019-02-07T17:16:50.116Z,99691.77
2019-02-07T17:19:16.293Z,99690.16
2019-02-07T17:21:42.542Z,99697.11
2019-02-07T17:24:08.705Z,99693.18
2019-02-07T17:26:34.926Z,99696.13
2019-02-07T17:29:01.081Z,99692.93
2019-02-07T17:31:27.409Z,99694.83
2019-02-07T17:33:53.900Z,99702.50
2019-02-07T17:36:20.440Z,99696.29
2019-02-07T17:38:46.772Z,99698.69
2019-02-07T17:41:13.111Z,99701.43
2019-02-07T17:43:39.375Z,99706.02
2019-02-07T17:46:05.638Z,99716.39
2019-02-07T17:48:31.834Z,99712.13
2019-02-07T17:50:58.077Z,99713.43
2019-02-07T17:53:24.605Z,99708.26
2019-02-07T17:55:51.233Z,99704.05
2019-02-07T17:58:17.398Z,99700.87
2019-02-07T18:00:56.797Z,99701.67
2019-02-07T18:03:23.257Z,99706.83
2019-02-07T18:05:49.515Z,99713.30
2019-02-07T18:08:16.107Z,99708.34
2019-02-07T18:10:42.425Z,99713.77
2019-02-07T18:13:08.794Z,99713.31
2019-02-07T18:15:34.953Z,99719.48
2019-02-07T18:18:01.184Z,99720.39
2019-02-07T18:20:27.561Z,99723.59
2019-02-07T18:22:54.022Z,99733.07
2019-02-07T18:25:20.253Z,99736.16
2019-02-07T18:27:46.484Z,99729.66
2019-02-07T18:30:20.649Z,99737.84
2019-02-07T18:32:46.998Z,99743.18
2019-02-07T18:35:14.994Z,99751.41
2019-02-07T18:37:41.395Z,99746.03
2019-02-07T18:40:16.045Z,99746.91
2019-02-07T18:42:43.218Z,99752.80
2019-02-07T18:45:16.116Z,99756.19
2019-02-07T18:47:42.791Z,99753.17
2019-02-07T18:50:26.459Z,99749.92
2019-02-07T18:52:52.857Z,99759.63
2019-02-07T18:55:19.022Z,99754.98
2019-02-07T18:57:45.230Z,99761.64
2019-02-07T19:00:22.278Z,99759.27
2019-02-07T19:02:50.248Z,99761.19
2019-02-07T19:05:19.727Z,99753.65
2019-02-07T19:07:46.099Z,99742.52
2019-02-07T19:10:36.833Z,99747.70
2019-02-07T19:13:03.974Z,99748.38
2019-02-07T19:15:50.228Z,99748.36
2019-02-07T19:18:16.427Z,99754.40
2019-02-07T19:20:42.733Z,99759.09
2019-02-07T19:23:08.941Z,99759.23
2019-02-07T19:25:35.573Z,99748.17
2019-02-07T19:28:04.192Z,99752.77
2019-02-07T19:30:32.070Z,99750.57
2019-02-07T19:32:59.017Z,99746.14
2019-02-07T19:35:25.301Z,99757.04
2019-02-07T19:37:51.861Z,99777.94
2019-02-07T19:40:19.725Z,99780.70
2019-02-07T19:42:45.988Z,99793.48
2019-02-07T19:45:16.662Z,99801.36
2019-02-07T19:47:42.887Z,99814.80
2019-02-07T19:50:13.573Z,99816.67
2019-02-07T19:52:40.018Z,99823.84
2019-02-07T19:55:11.022Z,99816.47
2019-02-07T19:57:37.261Z,99809.63
2019-02-07T20:00:15.330Z,99805.22
2019-02-07T20:02:41.864Z,99807.55
2019-02-07T20:05:09.854Z,99823.44
2019-02-07T20:07:36.059Z,99829.14
2019-02-07T20:10:15.556Z,99846.50
2019-02-07T20:12:42.590Z,99864.17
2019-02-07T20:15:20.288Z,99863.93
2019-02-07T20:17:46.789Z,99859.96
2019-02-07T20:20:15.122Z,99864.97
2019-02-07T20:22:41.624Z,99860.83
2019-02-07T20:25:10.986Z,99865.52
2019-02-07T20:27:37.367Z,99864.50
2019-02-07T20:30:17.558Z,99866.02
2019-02-07T20:32:43.912Z,99873.19
2019-02-07T20:35:11.583Z,99884.73
2019-02-07T20:37:37.856Z,99891.12
2019-02-07T20:40:09.224Z,99891.06
2019-02-07T20:42:35.536Z,99894.67
2019-02-07T20:45:02.036Z,99888.13
2019-02-07T20:47:28.552Z,99895.65
2019-02-07T20:49:55.141Z,99885.59
2019-02-07T20:52:27.090Z,99894.48
2019-02-07T20:54:49.458Z,99892.30
2019-02-07T20:57:16.080Z,99881.38
2019-02-07T20:59:42.318Z,99887.70
2019-02-07T21:02:08.859Z,99889.70
2019-02-07T21:04:35.543Z,99895.02
2019-02-07T21:07:03.240Z,99896.72
2019-02-07T21:09:29.914Z,99898.97
2019-02-07T21:11:56.389Z,99905.92
2019-02-07T21:14:22.908Z,99901.52
2019-02-07T21:16:49.093Z,99901.52
2019-02-07T21:19:15.339Z,99904.37
2019-02-07T21:21:41.510Z,99910.21
2019-02-07T21:24:08.147Z,99903.17
2019-02-07T21:26:34.316Z,99902.63
2019-02-07T21:29:00.549Z,99911.63
2019-02-07T21:31:26.754Z,99905.05
2019-02-07T21:33:53.362Z,99912.54
2019-02-07T21:36:19.861Z,99899.89
2019-02-07T21:38:46.124Z,99903.15
2019-02-07T21:41:12.423Z,99906.16
2019-02-07T21:43:38.634Z,99911.19
2019-02-07T21:46:04.810Z,99915.08
2019-02-07T21:48:31.100Z,99913.61
2019-02-07T21:50:57.273Z,99915.58
2019-02-07T21:53:23.549Z,99913.83
2019-02-07T21:55:49.721Z,99922.06
2019-02-07T21:58:16.087Z,99923.80
2019-02-07T22:00:44.933Z,99923.05
2019-02-07T22:03:12.335Z,99926.02
2019-02-07T22:05:39.053Z,99927.67
2019-02-07T22:08:06.670Z,99924.30
2019-02-07T22:10:33.025Z,99930.77
2019-02-07T22:12:59.380Z,99930.20
2019-02-07T22:15:26.803Z,99932.30
2019-02-07T22:17:53.083Z,99927.40
2019-02-07T22:20:27.897Z,99931.29
2019-02-07T22:22:57.285Z,99931.92
2019-02-07T22:25:23.551Z,99932.30
2019-02-07T22:27:50.110Z,99941.81
2019-02-07T22:30:30.330Z,99942.98
2019-02-07T22:32:57.110Z,99946.08
2019-02-07T22:35:23.474Z,99944.51
2019-02-07T22:37:49.719Z,99942.86
2019-02-07T22:40:19.299Z,99942.35
2019-02-07T22:42:48.027Z,99937.69
2019-02-07T22:45:17.690Z,99940.47
2019-02-07T22:47:44.245Z,99945.19
2019-02-07T22:50:17.999Z,99952.00
2019-02-07T22:52:44.447Z,99959.30
2019-02-07T22:55:11.422Z,99969.32
2019-02-07T22:57:37.830Z,99956.96
2019-02-07T23:00:37.299Z,99965.42
2019-02-07T23:03:23.072Z,99960.91
2019-02-07T23:05:49.261Z,99957.98
2019-02-07T23:08:15.569Z,99957.94
2019-02-07T23:10:42.152Z,99956.45
2019-02-07T23:13:09.090Z,99961.83
2019-02-07T23:15:35.575Z,99953.26
2019-02-07T23:18:02.739Z,99958.97
2019-02-07T23:20:35.020Z,99955.56
2019-02-07T23:23:05.507Z,99963.63
2019-02-07T23:25:31.802Z,99965.38
2019-02-07T23:27:58.501Z,99976.06
2019-02-07T23:30:24.678Z,99971.55
2019-02-07T23:32:50.872Z,99970.73
2019-02-07T23:35:17.065Z,99973.30
2019-02-07T23:37:43.493Z,99978.23
2019-02-07T23:40:16.392Z,99975.86
2019-02-07T23:42:42.985Z,99974.98
2019-02-07T23:45:13.366Z,99973.38
2019-02-07T23:47:39.611Z,99975.81
2019-02-07T23:50:09.175Z,99974.98
2019-02-07T23:52:35.330Z,99978.89
2019-02-07T23:55:01.724Z,99986.16
2019-02-07T23:57:27.877Z,99983.79
2019-02-07T23:59:54.059Z,99985.34
